createdAt,value
2018-07-21T00:00:34.642Z,96.40
2018-07-21T00:03:40.284Z,96.70
2018-07-21T00:06:45.428Z,96.10
2018-07-21T00:09:49.784Z,95.90
2018-07-21T00:13:00.703Z,95.50
2018-07-21T00:16:05.093Z,95.30
2018-07-21T00:19:16.172Z,96.60
2018-07-21T00:22:20.609Z,98.30
2018-07-21T00:25:25.035Z,97.30
2018-07-21T00:28:29.499Z,97.70
2018-07-21T00:31:33.956Z,97.70
2018-07-21T00:34:38.916Z,97.30
2018-07-21T00:37:43.283Z,97.60
2018-07-21T00:40:47.612Z,97.60
2018-07-21T00:43:53.045Z,97.70
2018-07-21T00:46:57.510Z,98.50
2018-07-21T00:50:03.142Z,98.60
2018-07-21T00:53:07.528Z,98.50
2018-07-21T00:56:12.019Z,98.60
2018-07-21T00:59:17.171Z,98.70
2018-07-21T01:02:21.463Z,99.20
2018-07-21T01:05:26.356Z,99.40
2018-07-21T01:08:30.929Z,99.40
2018-07-21T01:11:35.558Z,99.30
2018-07-21T01:14:40.077Z,99.60
2018-07-21T01:17:44.639Z,99.70
2018-07-21T01:20:49.012Z,99.30
2018-07-21T01:23:53.511Z,99.50
2018-07-21T01:26:57.899Z,99.70
2018-07-21T01:30:02.315Z,99.90
2018-07-21T01:33:06.790Z,99.90
2018-07-21T01:36:11.175Z,99.90
2018-07-21T01:39:15.498Z,99.90
2018-07-21T01:42:19.971Z,99.90
2018-07-21T01:45:24.341Z,99.90
2018-07-21T01:48:28.849Z,99.90
2018-07-21T01:51:33.273Z,99.90
2018-07-21T01:54:38.689Z,99.90
2018-07-21T01:57:43.080Z,99.90
2018-07-21T02:00:47.429Z,99.90
2018-07-21T02:03:51.831Z,99.90
2018-07-21T02:06:56.303Z,99.90
2018-07-21T02:10:00.731Z,99.90
2018-07-21T02:13:05.697Z,99.90
2018-07-21T02:16:10.382Z,99.90
2018-07-21T02:19:15.231Z,99.90
2018-07-21T02:22:20.241Z,99.90
2018-07-21T02:25:24.827Z,99.90
2018-07-21T02:28:29.247Z,99.90
2018-07-21T02:31:33.391Z,99.90
2018-07-21T02:34:38.518Z,99.90
2018-07-21T02:37:42.883Z,99.90
2018-07-21T02:40:47.312Z,99.90
2018-07-21T02:43:51.566Z,99.90
2018-07-21T02:46:56.076Z,99.90
2018-07-21T02:50:00.515Z,99.90
2018-07-21T02:53:04.882Z,99.90
2018-07-21T02:56:09.288Z,99.90
2018-07-21T02:59:13.657Z,99.90
2018-07-21T03:02:17.990Z,99.90
2018-07-21T03:05:22.472Z,99.90
2018-07-21T03:08:26.862Z,99.90
2018-07-21T03:11:31.223Z,99.90
2018-07-21T03:14:35.624Z,99.90
2018-07-21T03:17:40.082Z,99.90
2018-07-21T03:23:48.496Z,99.90
2018-07-21T03:26:52.816Z,99.90
2018-07-21T03:29:57.299Z,99.90
2018-07-21T03:33:01.828Z,99.90
2018-07-21T03:36:06.648Z,99.90
2018-07-21T03:39:11.995Z,99.90
2018-07-21T03:42:16.398Z,99.90
2018-07-21T03:45:20.886Z,99.90
2018-07-21T03:48:25.196Z,99.90
2018-07-21T03:51:29.523Z,99.90
2018-07-21T03:54:34.100Z,99.90
2018-07-21T03:57:38.578Z,99.90
2018-07-21T04:00:42.998Z,99.90
2018-07-21T04:03:47.380Z,99.90
2018-07-21T04:06:51.918Z,99.90
2018-07-21T04:09:56.357Z,99.90
2018-07-21T04:13:00.748Z,99.90
2018-07-21T04:16:05.106Z,99.90
2018-07-21T04:19:09.460Z,99.90
2018-07-21T04:22:13.960Z,99.90
2018-07-21T04:25:18.364Z,99.90
2018-07-21T04:28:22.652Z,99.90
2018-07-21T04:31:27.160Z,99.90
2018-07-21T04:34:31.524Z,99.90
2018-07-21T04:37:36.196Z,99.90
2018-07-21T04:40:40.443Z,99.90
2018-07-21T04:43:44.867Z,99.90
2018-07-21T04:46:49.214Z,99.90
2018-07-21T04:49:53.623Z,99.90
2018-07-21T04:52:58.092Z,99.90
2018-07-21T04:56:06.110Z,99.90
2018-07-21T04:59:10.834Z,99.90
2018-07-21T05:02:15.679Z,99.90
2018-07-21T05:05:20.533Z,99.90
2018-07-21T05:08:25.292Z,99.90
2018-07-21T05:11:29.857Z,99.90
2018-07-21T05:14:34.808Z,99.20
2018-07-21T05:17:39.296Z,99.90
2018-07-21T05:20:44.010Z,99.90
2018-07-21T05:23:48.346Z,99.90
2018-07-21T05:26:53.021Z,99.90
2018-07-21T05:29:57.591Z,99.90
2018-07-21T05:33:03.126Z,99.90
2018-07-21T05:36:08.698Z,99.70
2018-07-21T05:39:13.204Z,99.00
2018-07-21T05:42:19.775Z,98.30
2018-07-21T05:45:24.311Z,97.90
2018-07-21T05:48:28.929Z,97.40
2018-07-21T05:51:33.566Z,96.40
2018-07-21T05:54:38.501Z,95.70
2018-07-21T05:57:43.023Z,95.60
2018-07-21T06:00:47.749Z,95.20
2018-07-21T06:03:53.877Z,95.50
2018-07-21T06:06:58.508Z,95.40
2018-07-21T06:10:03.341Z,95.10
2018-07-21T06:13:08.012Z,95.10
2018-07-21T06:16:12.508Z,95.00
2018-07-21T06:19:17.019Z,93.70
2018-07-21T06:22:21.519Z,93.80
2018-07-21T06:25:26.102Z,91.50
2018-07-21T06:28:30.463Z,90.10
2018-07-21T06:31:35.055Z,82.10
2018-07-21T06:34:39.694Z,80.00
2018-07-21T06:37:44.272Z,71.90
2018-07-21T06:40:48.608Z,66.90
2018-07-21T06:43:52.878Z,64.10
2018-07-21T06:46:57.148Z,64.10
2018-07-21T06:50:01.441Z,64.00
2018-07-21T06:53:05.739Z,60.40
2018-07-21T06:56:10.045Z,59.10
2018-07-21T06:59:14.357Z,58.70
2018-07-21T07:02:18.676Z,59.10
2018-07-21T07:05:23.005Z,59.90
2018-07-21T07:08:27.337Z,61.60
2018-07-21T07:11:31.653Z,61.70
2018-07-21T07:14:37.354Z,63.30
2018-07-21T07:17:42.664Z,61.40
2018-07-21T07:20:47.598Z,62.00
2018-07-21T07:23:52.321Z,61.10
2018-07-21T07:26:56.778Z,62.00
2018-07-21T07:30:01.190Z,63.60
2018-07-21T07:33:05.327Z,66.70
2018-07-21T07:36:11.191Z,66.10
2018-07-21T07:39:15.515Z,67.90
2018-07-21T07:42:19.928Z,67.70
2018-07-21T07:45:24.243Z,68.00
2018-07-21T07:48:28.588Z,70.70
2018-07-21T07:51:33.360Z,70.50
2018-07-21T07:54:44.444Z,70.80
2018-07-21T07:57:48.736Z,72.00
2018-07-21T08:00:53.097Z,71.30
2018-07-21T08:03:57.230Z,71.30
2018-07-21T08:07:01.699Z,72.50
2018-07-21T08:10:06.593Z,69.60
2018-07-21T08:13:10.990Z,69.40
2018-07-21T08:16:15.311Z,69.00
2018-07-21T08:19:20.641Z,69.50
2018-07-21T08:22:25.241Z,70.10
2018-07-21T08:25:29.529Z,70.30
2018-07-21T08:28:33.913Z,67.30
2018-07-21T08:31:38.229Z,65.00
2018-07-21T08:34:42.498Z,65.00
2018-07-21T08:37:46.825Z,64.70
2018-07-21T08:40:51.006Z,61.30
2018-07-21T08:43:55.751Z,65.90
2018-07-21T08:47:00.029Z,62.10
2018-07-21T08:50:04.869Z,61.80
2018-07-21T08:53:09.244Z,61.30
2018-07-21T08:56:13.573Z,61.20
2018-07-21T08:59:17.991Z,58.30
2018-07-21T09:02:22.374Z,57.20
2018-07-21T09:05:26.727Z,58.00
2018-07-21T09:08:31.062Z,55.00
2018-07-21T09:11:35.872Z,53.30
2018-07-21T09:14:40.122Z,54.00
2018-07-21T09:17:44.427Z,53.80
2018-07-21T09:20:48.669Z,54.50
2018-07-21T09:23:52.988Z,56.40
2018-07-21T09:26:58.317Z,55.80
2018-07-21T09:30:02.672Z,56.40
2018-07-21T09:33:06.975Z,57.00
2018-07-21T09:36:11.331Z,57.00
2018-07-21T09:39:15.648Z,59.20
2018-07-21T09:42:20.062Z,58.30
2018-07-21T09:45:24.383Z,58.70
2018-07-21T09:48:28.651Z,60.20
2018-07-21T09:51:33.183Z,61.00
2018-07-21T09:54:37.770Z,61.00
2018-07-21T09:57:42.099Z,62.40
2018-07-21T10:00:51.774Z,62.50
2018-07-21T10:03:56.095Z,63.20
2018-07-21T10:07:00.268Z,63.40
2018-07-21T10:10:06.237Z,64.20
2018-07-21T10:13:10.612Z,65.10
2018-07-21T10:16:14.990Z,65.10
2018-07-21T10:19:19.972Z,65.00
2018-07-21T10:22:24.264Z,65.70
2018-07-21T10:25:34.436Z,66.30
2018-07-21T10:28:44.760Z,66.60
2018-07-21T10:31:49.160Z,65.80
2018-07-21T10:34:53.559Z,67.30
2018-07-21T10:37:57.866Z,66.60
2018-07-21T10:41:02.232Z,67.50
2018-07-21T10:44:06.586Z,68.40
2018-07-21T10:47:10.913Z,69.40
2018-07-21T10:50:15.279Z,70.50
2018-07-21T10:53:19.736Z,70.40
2018-07-21T10:56:24.151Z,71.90
2018-07-21T10:59:28.459Z,72.20
2018-07-21T11:02:35.645Z,75.10
2018-07-21T11:05:40.016Z,76.00
2018-07-21T11:08:44.426Z,76.80
2018-07-21T11:11:48.805Z,77.50
2018-07-21T11:14:53.657Z,78.60
2018-07-21T11:17:57.930Z,79.30
2018-07-21T11:21:02.261Z,79.70
2018-07-21T11:24:06.914Z,80.70
2018-07-21T11:27:11.392Z,81.70
2018-07-21T11:30:15.674Z,84.20
2018-07-21T11:33:20.086Z,86.00
2018-07-21T11:36:24.364Z,88.20
2018-07-21T11:39:30.550Z,90.00
2018-07-21T11:42:35.342Z,89.30
2018-07-21T11:45:39.901Z,92.40
2018-07-21T11:48:44.240Z,92.60
2018-07-21T11:51:48.704Z,92.90
2018-07-21T11:54:53.249Z,94.50
2018-07-21T11:57:58.314Z,95.20
2018-07-21T12:01:02.851Z,95.90
2018-07-21T12:04:07.186Z,96.60
2018-07-21T12:07:11.583Z,97.20
2018-07-21T12:10:16.688Z,97.70
2018-07-21T12:13:21.145Z,98.50
2018-07-21T12:16:25.459Z,99.20
2018-07-21T12:19:29.785Z,99.90
2018-07-21T12:22:34.228Z,99.90
2018-07-21T12:25:40.243Z,99.90
2018-07-21T12:28:44.564Z,99.90
2018-07-21T12:31:48.867Z,99.90
2018-07-21T12:34:53.262Z,99.90
2018-07-21T12:37:57.730Z,99.90
2018-07-21T12:41:02.130Z,99.90
2018-07-21T12:44:06.330Z,99.90
2018-07-21T12:47:11.524Z,99.90
2018-07-21T12:50:16.078Z,99.90
2018-07-21T12:53:21.121Z,99.90
2018-07-21T12:56:25.690Z,99.90
2018-07-21T12:59:29.916Z,99.90
2018-07-21T13:02:34.877Z,99.90
2018-07-21T13:05:39.027Z,99.90
2018-07-21T13:08:43.697Z,99.90
2018-07-21T13:11:48.429Z,99.90
2018-07-21T13:14:52.825Z,99.90
2018-07-21T13:17:58.017Z,99.90
2018-07-21T13:21:02.978Z,99.90
2018-07-21T13:24:07.292Z,99.90
2018-07-21T13:27:11.665Z,99.90
2018-07-21T13:30:16.030Z,99.90
2018-07-21T13:33:20.418Z,99.90
2018-07-21T13:36:24.693Z,99.90
2018-07-21T13:39:29.577Z,99.90
2018-07-21T13:42:34.782Z,99.90
2018-07-21T13:45:39.246Z,99.90
2018-07-21T13:48:43.844Z,99.90
2018-07-21T13:51:48.323Z,99.90
2018-07-21T13:54:52.927Z,99.90
2018-07-21T13:57:58.208Z,99.90
2018-07-21T14:01:02.938Z,99.90
2018-07-21T14:04:07.539Z,99.90
2018-07-21T14:07:12.045Z,99.90
2018-07-21T14:10:16.421Z,99.90
2018-07-21T14:13:20.847Z,99.90
2018-07-21T14:16:25.240Z,99.90
2018-07-21T14:19:30.199Z,99.90
2018-07-21T14:22:35.187Z,99.90
2018-07-21T14:25:39.531Z,99.90
2018-07-21T14:28:43.900Z,99.90
2018-07-21T14:31:48.294Z,99.90
2018-07-21T14:34:52.874Z,99.90
2018-07-21T14:37:57.187Z,99.90
2018-07-21T14:41:01.483Z,99.90
2018-07-21T14:44:05.987Z,99.90
2018-07-21T14:47:10.426Z,99.90
2018-07-21T14:50:14.926Z,99.90
2018-07-21T14:53:19.305Z,99.90
2018-07-21T14:56:24.657Z,99.90
2018-07-21T14:59:29.034Z,99.90
2018-07-21T15:02:34.983Z,99.90
2018-07-21T15:05:39.355Z,99.90
2018-07-21T15:08:43.844Z,99.90
2018-07-21T15:11:48.297Z,99.90
2018-07-21T15:14:52.732Z,99.90
2018-07-21T15:17:57.105Z,99.90
2018-07-21T15:21:01.531Z,99.90
2018-07-21T15:24:06.107Z,99.90
2018-07-21T15:27:10.609Z,99.90
2018-07-21T15:30:15.146Z,99.90
2018-07-21T15:33:19.435Z,99.90
2018-07-21T15:36:23.831Z,99.90
2018-07-21T15:39:28.089Z,99.90
2018-07-21T15:42:33.538Z,99.90
2018-07-21T15:45:38.456Z,99.90
2018-07-21T15:48:42.820Z,99.90
2018-07-21T15:51:47.220Z,99.90
2018-07-21T15:54:52.002Z,99.90
2018-07-21T15:57:56.389Z,99.90
2018-07-21T16:01:00.775Z,99.90
2018-07-21T16:04:05.316Z,99.90
2018-07-21T16:07:09.738Z,99.90
2018-07-21T16:10:14.218Z,99.90
2018-07-21T16:13:18.669Z,99.90
2018-07-21T16:16:23.166Z,99.90
2018-07-21T16:19:27.376Z,99.90
2018-07-21T16:22:31.782Z,99.90
2018-07-21T16:25:36.610Z,99.90
2018-07-21T16:28:40.892Z,99.90
2018-07-21T16:31:45.235Z,99.90
2018-07-21T16:34:49.585Z,99.90
2018-07-21T16:37:53.940Z,99.90
2018-07-21T16:40:58.403Z,99.90
2018-07-21T16:44:02.788Z,99.90
2018-07-21T16:47:07.392Z,99.90
2018-07-21T16:50:12.491Z,99.90
2018-07-21T16:53:16.971Z,99.90
2018-07-21T16:56:22.124Z,99.90
2018-07-21T16:59:26.624Z,99.90
2018-07-21T17:02:31.486Z,99.90
2018-07-21T17:05:36.076Z,99.90
2018-07-21T17:08:40.452Z,99.90
2018-07-21T17:11:45.179Z,99.90
2018-07-21T17:14:49.647Z,99.90
2018-07-21T17:17:53.989Z,99.90
2018-07-21T17:20:58.415Z,99.90
2018-07-21T17:24:02.681Z,99.90
2018-07-21T17:27:07.237Z,99.90
2018-07-21T17:30:12.271Z,99.90
2018-07-21T17:33:16.751Z,99.90
2018-07-21T17:36:21.219Z,99.90
2018-07-21T17:39:25.619Z,99.90
2018-07-21T17:42:29.901Z,99.90
2018-07-21T17:45:34.226Z,99.90
2018-07-21T17:48:39.089Z,99.90
2018-07-21T17:51:43.342Z,99.90
2018-07-21T17:54:47.669Z,99.90
2018-07-21T17:57:52.021Z,99.90
2018-07-21T18:00:56.305Z,99.90
2018-07-21T18:04:00.688Z,99.90
2018-07-21T18:07:05.674Z,99.90
2018-07-21T18:10:10.060Z,99.90
2018-07-21T18:13:14.390Z,99.90
2018-07-21T18:16:18.792Z,99.90
2018-07-21T18:19:23.048Z,99.90
2018-07-21T18:22:27.497Z,99.90
2018-07-21T18:25:33.226Z,99.90
2018-07-21T18:28:37.848Z,99.90
2018-07-21T18:31:42.341Z,99.90
2018-07-21T18:34:46.939Z,99.90
2018-07-21T18:37:53.066Z,99.90
2018-07-21T18:40:57.435Z,99.90
2018-07-21T18:44:01.856Z,99.90
2018-07-21T18:47:06.096Z,99.90
2018-07-21T18:50:10.591Z,99.90
2018-07-21T18:53:15.319Z,99.90
2018-07-21T18:56:19.910Z,99.90
2018-07-21T18:59:24.679Z,99.90
2018-07-21T19:02:29.059Z,99.90
2018-07-21T19:05:33.774Z,99.90
2018-07-21T19:08:43.676Z,99.90
2018-07-21T19:11:53.401Z,99.90
2018-07-21T19:14:57.870Z,99.90
2018-07-21T19:18:04.114Z,99.90
2018-07-21T19:21:13.622Z,99.90
2018-07-21T19:24:18.325Z,99.90
2018-07-21T19:27:32.799Z,99.90
2018-07-21T19:30:37.394Z,99.90
2018-07-21T19:33:41.876Z,99.90
2018-07-21T19:36:46.340Z,99.90
2018-07-21T19:39:50.720Z,99.90
2018-07-21T19:42:55.147Z,99.90
2018-07-21T19:45:59.692Z,99.90
2018-07-21T19:49:04.091Z,99.90
2018-07-21T19:52:08.818Z,99.90
2018-07-21T19:55:13.693Z,99.90
2018-07-21T19:58:18.292Z,99.90
2018-07-21T20:01:22.879Z,99.90
2018-07-21T20:04:27.445Z,99.90
2018-07-21T20:07:32.366Z,99.90
2018-07-21T20:10:37.155Z,99.90
2018-07-21T20:13:41.802Z,99.90
2018-07-21T20:16:46.252Z,99.90
2018-07-21T20:19:50.600Z,99.90
2018-07-21T20:22:54.963Z,99.90
2018-07-21T20:25:59.390Z,99.90
2018-07-21T20:29:04.323Z,99.90
2018-07-21T20:32:09.064Z,99.90
2018-07-21T20:35:13.627Z,99.90
2018-07-21T20:38:17.964Z,99.90
2018-07-21T20:41:22.898Z,99.90
2018-07-21T20:44:28.359Z,99.90
2018-07-21T20:47:32.785Z,99.90
2018-07-21T20:50:37.309Z,99.90
2018-07-21T20:53:41.739Z,99.90
2018-07-21T20:56:46.119Z,99.90
2018-07-21T20:59:50.594Z,99.90
2018-07-21T21:02:55.084Z,99.90
2018-07-21T21:05:59.453Z,99.90
2018-07-21T21:09:04.887Z,99.90
2018-07-21T21:12:09.446Z,99.90
2018-07-21T21:15:14.622Z,99.90
2018-07-21T21:18:19.541Z,99.90
2018-07-21T21:21:24.147Z,99.90
2018-07-21T21:24:28.829Z,99.90
2018-07-21T21:27:33.420Z,99.90
2018-07-21T21:30:38.186Z,99.90
2018-07-21T21:33:42.791Z,99.90
2018-07-21T21:36:49.512Z,99.90
2018-07-21T21:39:54.227Z,99.90
2018-07-21T21:42:59.882Z,99.90
2018-07-21T21:46:04.514Z,99.90
2018-07-21T21:49:09.547Z,99.90
2018-07-21T21:52:14.344Z,99.90
2018-07-21T21:55:19.158Z,99.90
2018-07-21T21:58:23.470Z,99.90
2018-07-21T22:01:29.316Z,99.90
2018-07-21T22:04:33.754Z,99.90
2018-07-21T22:07:38.776Z,99.90
2018-07-21T22:10:43.528Z,99.90
2018-07-21T22:13:48.095Z,99.90
2018-07-21T22:16:52.552Z,99.90
2018-07-21T22:19:57.001Z,99.90
2018-07-21T22:23:01.464Z,99.90
2018-07-21T22:26:05.929Z,99.90
2018-07-21T22:29:12.776Z,99.90
2018-07-21T22:32:17.214Z,99.90
2018-07-21T22:35:22.610Z,99.90
2018-07-21T22:38:28.014Z,99.90
2018-07-21T22:41:33.215Z,99.90
2018-07-21T22:44:37.902Z,99.90
2018-07-21T22:47:42.509Z,99.90
2018-07-21T22:50:47.182Z,99.90
2018-07-21T22:53:51.800Z,99.90
2018-07-21T22:56:56.284Z,99.90
2018-07-21T23:00:00.580Z,99.90
2018-07-21T23:03:05.193Z,99.90
2018-07-21T23:06:09.679Z,99.90
2018-07-21T23:09:14.291Z,99.90
2018-07-21T23:12:19.065Z,99.90
2018-07-21T23:15:23.642Z,99.90
2018-07-21T23:18:28.295Z,99.90
2018-07-21T23:21:32.857Z,99.90
2018-07-21T23:24:37.740Z,99.90
2018-07-21T23:27:42.353Z,99.90
2018-07-21T23:30:46.959Z,99.90
2018-07-21T23:33:51.459Z,99.90
2018-07-21T23:36:55.912Z,99.90
2018-07-21T23:40:00.362Z,99.90
2018-07-21T23:43:05.009Z,99.90
2018-07-21T23:46:09.729Z,99.90
2018-07-21T23:49:14.753Z,99.90
2018-07-21T23:52:19.913Z,99.90
2018-07-21T23:55:24.610Z,99.90
2018-07-21T23:58:29.150Z,99.90
